Time;durP1;ratioP1;P1;durP2;ratioP2;P2;SDS_P1;SDS_P2;PMS_P1;PMS_P2;Temp;Humidity;BMP_temperature;BMP_pressure;BME280_temperature;BME280_humidity;BME280_pressure;Samples;Min_cycle;Max_cycle;Signal;HPM_P1;HPM_P2
2020/12/24 00:01:22;;;;;;;16.02;14.43;;;11.50;99.90;;;;;;5069382;28;20449;-64
2020/12/24 00:03:48;;;;;;;15.63;14.13;;;11.50;99.90;;;;;;5047732;28;20024;-64
2020/12/24 00:06:13;;;;;;;15.65;14.18;;;11.40;99.90;;;;;;5062978;28;20063;-64
2020/12/24 00:08:39;;;;;;;17.50;15.38;;;11.50;99.90;;;;;;5068230;28;20033;-64
2020/12/24 00:11:08;;;;;;;15.15;13.75;;;11.50;99.90;;;;;;5062099;28;20024;-64
2020/12/24 00:13:34;;;;;;;14.13;12.73;;;11.50;99.90;;;;;;5063977;28;20729;-64
2020/12/24 00:16:00;;;;;;;15.35;13.85;;;11.50;99.90;;;;;;5062552;28;20039;-64
2020/12/24 00:18:26;;;;;;;14.32;12.98;;;11.50;99.90;;;;;;5071252;28;20555;-64
2020/12/24 00:20:52;;;;;;;16.10;14.50;;;11.50;99.90;;;;;;5061540;28;20067;-63
2020/12/24 00:23:18;;;;;;;14.32;12.82;;;11.50;99.90;;;;;;5064329;28;20055;-63
2020/12/24 00:25:44;;;;;;;14.98;13.48;;;11.50;99.90;;;;;;5061912;28;20032;-63
2020/12/24 00:28:10;;;;;;;15.77;14.18;;;11.50;99.90;;;;;;5063494;28;20120;-64
2020/12/24 00:30:40;;;;;;;14.30;12.80;;;11.50;99.90;;;;;;5047523;28;20059;-64
2020/12/24 00:33:09;;;;;;;13.35;12.15;;;11.50;99.90;;;;;;5067254;28;20025;-63
2020/12/24 00:35:35;;;;;;;15.52;14.00;;;11.50;99.90;;;;;;5059402;28;20033;-64
2020/12/24 00:38:00;;;;;;;14.07;12.77;;;11.50;99.90;;;;;;5059737;28;20101;-63
2020/12/24 00:40:27;;;;;;;16.15;14.52;;;11.50;99.90;;;;;;5058790;28;20405;-64
2020/12/24 00:42:52;;;;;;;14.40;13.00;;;11.60;99.90;;;;;;5064915;28;20130;-63
2020/12/24 00:45:18;;;;;;;14.45;13.05;;;11.50;99.90;;;;;;5062045;28;20033;-64
2020/12/24 00:47:44;;;;;;;14.90;13.40;;;11.60;99.90;;;;;;5066161;28;20021;-63
2020/12/24 00:50:10;;;;;;;14.95;13.57;;;11.60;99.90;;;;;;5054187;28;20449;-63
2020/12/24 00:52:35;;;;;;;15.30;13.80;;;11.60;99.90;;;;;;5063226;28;20043;-64
2020/12/24 00:55:01;;;;;;;14.23;12.80;;;11.50;99.90;;;;;;5062320;28;20560;-63
2020/12/24 00:57:27;;;;;;;14.45;13.05;;;11.50;99.90;;;;;;5062434;28;20064;-63
2020/12/24 00:59:52;;;;;;;13.65;12.45;;;11.60;99.90;;;;;;5058735;28;20104;-63
2020/12/24 01:02:18;;;;;;;15.20;13.65;;;11.60;99.90;;;;;;5059900;28;20029;-64
2020/12/24 01:04:43;;;;;;;14.18;12.85;;;11.60;99.90;;;;;;5061474;28;20474;-63
2020/12/24 01:07:09;;;;;;;13.85;12.55;;;11.50;99.90;;;;;;5058271;28;20021;-64
2020/12/24 01:09:35;;;;;;;12.32;11.13;;;11.50;99.90;;;;;;5064345;28;20027;-64
2020/12/24 01:12:00;;;;;;;14.52;13.20;;;11.50;99.90;;;;;;5056426;28;20048;-64
2020/12/24 01:14:26;;;;;;;14.25;12.85;;;11.50;99.90;;;;;;5063937;28;20044;-64
2020/12/24 01:16:51;;;;;;;14.13;12.73;;;11.50;99.90;;;;;;5058432;28;20025;-64
2020/12/24 01:19:17;;;;;;;15.18;13.77;;;11.60;99.90;;;;;;5061099;28;20470;-64
2020/12/24 01:21:46;;;;;;;13.88;12.57;;;11.60;99.90;;;;;;5041825;28;20334;-63
2020/12/24 01:24:12;;;;;;;15.48;13.98;;;11.60;99.90;;;;;;5064317;28;20074;-64
2020/12/24 01:26:44;;;;;;;16.48;14.98;;;11.60;99.90;;;;;;5061610;28;20024;-64
2020/12/24 01:29:09;;;;;;;16.67;15.07;;;11.60;99.90;;;;;;5056541;28;20485;-63
2020/12/24 01:31:35;;;;;;;15.98;14.43;;;11.60;99.90;;;;;;5067321;28;20103;-63
2020/12/24 01:34:01;;;;;;;15.70;14.25;;;11.60;99.90;;;;;;5063890;28;20028;-63
2020/12/24 01:36:26;;;;;;;16.13;14.60;;;11.60;99.90;;;;;;5063018;28;20093;-63
2020/12/24 01:38:52;;;;;;;15.43;13.82;;;11.60;99.90;;;;;;5055038;28;20409;-63
2020/12/24 01:41:17;;;;;;;15.00;13.52;;;11.60;99.90;;;;;;5063635;28;20025;-64
2020/12/24 01:43:43;;;;;;;15.80;14.30;;;11.60;99.90;;;;;;5061032;28;20024;-63
2020/12/24 01:46:09;;;;;;;15.52;14.02;;;11.60;99.90;;;;;;5066661;28;20020;-64
2020/12/24 01:48:34;;;;;;;16.02;14.43;;;11.60;99.90;;;;;;5056206;28;20066;-64
2020/12/24 01:51:00;;;;;;;15.93;14.38;;;11.60;99.90;;;;;;5063574;28;20028;-64
2020/12/24 01:53:26;;;;;;;14.85;13.35;;;11.60;99.90;;;;;;5059733;28;20032;-63
2020/12/24 01:55:56;;;;;;;15.77;14.25;;;11.60;99.90;;;;;;5062603;28;20025;-64
2020/12/24 01:58:22;;;;;;;16.58;14.88;;;11.60;99.90;;;;;;5059663;28;20470;-64
2020/12/24 02:00:48;;;;;;;16.60;15.00;;;11.60;99.90;;;;;;5058810;28;20115;-63
2020/12/24 02:03:15;;;;;;;15.98;14.38;;;11.50;99.90;;;;;;5064402;28;20169;-64
2020/12/24 02:05:41;;;;;;;16.00;14.40;;;11.50;99.90;;;;;;5066386;28;20107;-64
2020/12/24 02:08:07;;;;;;;14.73;13.25;;;11.50;99.90;;;;;;5059244;28;20028;-64
2020/12/24 02:10:32;;;;;;;14.73;13.25;;;11.40;99.90;;;;;;5060963;28;20037;-64
2020/12/24 02:12:58;;;;;;;14.25;12.90;;;11.40;99.90;;;;;;5063284;28;20453;-64
2020/12/24 02:15:24;;;;;;;14.77;13.40;;;11.40;99.90;;;;;;5060572;28;20570;-64
2020/12/24 02:17:49;;;;;;;13.57;12.10;;;11.40;99.90;;;;;;5062838;28;20025;-64
2020/12/24 02:20:15;;;;;;;10.50;9.60;;;11.40;99.90;;;;;;5056042;28;20024;-64
2020/12/24 02:22:41;;;;;;;10.85;9.95;;;11.40;99.90;;;;;;5063841;28;20017;-64
2020/12/24 02:25:07;;;;;;;10.95;9.98;;;11.40;99.90;;;;;;5058976;28;20025;-64
2020/12/24 02:27:32;;;;;;;10.73;9.82;;;11.40;99.90;;;;;;5063906;28;20568;-64
2020/12/24 02:30:02;;;;;;;11.73;10.70;;;11.40;99.90;;;;;;5063444;28;20133;-64
2020/12/24 02:32:29;;;;;;;10.60;9.73;;;11.40;99.90;;;;;;5061128;28;20032;-64
2020/12/24 02:34:55;;;;;;;11.93;10.73;;;11.50;99.90;;;;;;5058355;28;20021;-65
2020/12/24 02:37:22;;;;;;;11.73;10.63;;;11.50;99.90;;;;;;5063849;28;20048;-64
2020/12/24 02:39:49;;;;;;;11.35;10.35;;;11.40;99.90;;;;;;5060401;28;20063;-65
2020/12/24 02:42:15;;;;;;;10.77;9.88;;;11.50;99.90;;;;;;5065116;28;20048;-64
2020/12/24 02:44:41;;;;;;;11.82;10.82;;;11.40;99.90;;;;;;5062531;28;20017;-65
2020/12/24 02:47:07;;;;;;;9.90;9.10;;;11.40;99.90;;;;;;5045985;28;20367;-64
2020/12/24 02:49:32;;;;;;;11.23;10.32;;;11.40;99.90;;;;;;5050407;28;20035;-64
2020/12/24 02:51:58;;;;;;;10.30;9.35;;;11.40;99.90;;;;;;5049676;28;20028;-65
2020/12/24 02:54:24;;;;;;;11.13;10.23;;;11.30;99.90;;;;;;5063832;28;20086;-64
2020/12/24 02:56:50;;;;;;;9.77;8.98;;;11.40;99.90;;;;;;5058371;28;20051;-64
2020/12/24 02:59:16;;;;;;;9.23;8.52;;;11.30;99.90;;;;;;5058735;28;20037;-64
2020/12/24 03:01:41;;;;;;;8.95;8.35;;;11.30;99.90;;;;;;5059643;28;20029;-64
2020/12/24 03:04:07;;;;;;;10.20;9.20;;;11.40;99.90;;;;;;5060084;28;20029;-63
2020/12/24 03:06:32;;;;;;;8.10;7.50;;;11.40;99.90;;;;;;5060788;28;20023;-64
2020/12/24 03:08:58;;;;;;;9.13;8.43;;;11.40;99.90;;;;;;5068099;28;20025;-64
2020/12/24 03:11:24;;;;;;;10.13;9.25;;;11.50;99.90;;;;;;5062278;28;20024;-64
2020/12/24 03:13:49;;;;;;;9.18;8.48;;;11.50;99.90;;;;;;5052717;28;20033;-63
2020/12/24 03:16:15;;;;;;;8.40;7.75;;;11.50;99.90;;;;;;5063155;28;20036;-64
2020/12/24 03:18:41;;;;;;;9.95;9.15;;;11.40;99.90;;;;;;5064417;28;20041;-63
2020/12/24 03:21:07;;;;;;;9.73;8.93;;;11.30;99.90;;;;;;5068635;28;20452;-64
2020/12/24 03:23:32;;;;;;;10.02;9.07;;;11.30;99.90;;;;;;5060574;28;20094;-64
2020/12/24 03:25:58;;;;;;;9.15;8.43;;;11.30;99.90;;;;;;5066214;28;20581;-64
2020/12/24 03:28:24;;;;;;;8.32;7.63;;;11.30;99.90;;;;;;5063922;28;20075;-64
2020/12/24 03:30:49;;;;;;;10.02;9.13;;;11.30;99.90;;;;;;5064038;28;20078;-64
2020/12/24 03:33:15;;;;;;;9.23;8.52;;;11.30;99.90;;;;;;5061531;28;20102;-64
2020/12/24 03:35:41;;;;;;;8.68;7.97;;;11.30;99.90;;;;;;5058634;28;20352;-64
2020/12/24 03:38:07;;;;;;;9.40;8.57;;;11.30;99.90;;;;;;5067926;28;20098;-64
2020/12/24 03:40:32;;;;;;;9.88;9.07;;;11.30;99.90;;;;;;5065102;28;20036;-64
2020/12/24 03:42:58;;;;;;;9.80;9.00;;;11.30;99.90;;;;;;5049057;28;20033;-64
2020/12/24 03:45:23;;;;;;;9.77;8.90;;;11.40;99.90;;;;;;5067042;28;20027;-64
2020/12/24 03:47:49;;;;;;;8.95;8.25;;;11.30;99.90;;;;;;5061712;28;20036;-64
2020/12/24 03:50:15;;;;;;;9.85;9.05;;;11.30;99.90;;;;;;5067799;28;20029;-64
2020/12/24 03:52:40;;;;;;;9.23;8.45;;;11.30;99.90;;;;;;5067867;28;20060;-64
2020/12/24 03:55:06;;;;;;;9.65;8.90;;;11.30;99.90;;;;;;5063489;28;20108;-64
2020/12/24 03:57:32;;;;;;;10.55;9.65;;;11.30;99.90;;;;;;5065156;28;20786;-64
2020/12/24 03:59:57;;;;;;;10.30;9.50;;;11.30;99.90;;;;;;5058107;28;20037;-64
2020/12/24 04:02:23;;;;;;;10.35;9.45;;;11.30;99.90;;;;;;5065585;28;20053;-64
2020/12/24 04:04:48;;;;;;;10.00;9.10;;;11.30;99.90;;;;;;5060806;28;20025;-64
2020/12/24 04:07:14;;;;;;;10.85;9.95;;;11.30;99.90;;;;;;5067724;28;20025;-64
2020/12/24 04:09:40;;;;;;;10.23;9.38;;;11.30;99.90;;;;;;5060335;28;20163;-64
2020/12/24 04:12:05;;;;;;;11.27;10.32;;;11.30;99.90;;;;;;5070366;28;20504;-64
2020/12/24 04:14:31;;;;;;;11.80;10.82;;;11.30;99.90;;;;;;5062771;28;20555;-64
2020/12/24 04:16:57;;;;;;;11.65;10.65;;;11.30;99.90;;;;;;5067017;28;20036;-64
2020/12/24 04:19:22;;;;;;;11.27;10.32;;;11.30;99.90;;;;;;5061344;28;20098;-64
2020/12/24 04:21:48;;;;;;;12.80;11.70;;;11.40;99.90;;;;;;5061756;28;20071;-64
2020/12/24 04:24:14;;;;;;;13.43;12.13;;;11.40;99.90;;;;;;5062073;28;20116;-64
2020/12/24 04:26:39;;;;;;;14.38;13.07;;;11.30;99.90;;;;;;5065015;28;20040;-64
2020/12/24 04:29:05;;;;;;;14.48;13.13;;;11.30;99.90;;;;;;5059032;28;20056;-64
2020/12/24 04:31:30;;;;;;;14.70;13.40;;;11.30;99.90;;;;;;5064333;28;20036;-64
2020/12/24 04:33:56;;;;;;;15.75;14.30;;;11.30;99.90;;;;;;5063771;28;20491;-64
2020/12/24 04:36:22;;;;;;;13.88;12.68;;;11.40;99.90;;;;;;5031914;28;20482;-64
2020/12/24 04:38:47;;;;;;;15.55;14.15;;;11.30;99.90;;;;;;5062479;28;20037;-64
2020/12/24 04:41:13;;;;;;;15.15;13.75;;;11.30;99.90;;;;;;5063522;28;20047;-64
2020/12/24 04:43:39;;;;;;;13.85;12.55;;;11.30;99.90;;;;;;5061780;28;20532;-64
2020/12/24 04:46:06;;;;;;;14.88;13.48;;;11.30;99.90;;;;;;5062552;28;20033;-64
2020/12/24 04:48:33;;;;;;;13.95;12.70;;;11.30;99.90;;;;;;5059086;28;20048;-63
2020/12/24 04:51:01;;;;;;;14.50;13.20;;;11.30;99.90;;;;;;5059362;28;20073;-64
2020/12/24 04:53:27;;;;;;;15.10;13.68;;;11.30;99.90;;;;;;5052132;28;20020;-64
2020/12/24 04:55:54;;;;;;;12.98;11.88;;;11.30;99.90;;;;;;5059571;28;20029;-64
2020/12/24 04:58:21;;;;;;;11.68;10.68;;;11.20;99.90;;;;;;5064728;28;20032;-64
2020/12/24 05:00:47;;;;;;;11.23;10.32;;;11.20;99.90;;;;;;5063220;28;20043;-64
2020/12/24 05:03:14;;;;;;;10.52;9.65;;;11.20;99.90;;;;;;5065595;28;20040;-64
2020/12/24 05:05:39;;;;;;;11.88;10.82;;;11.20;99.90;;;;;;5060425;28;20028;-64
2020/12/24 05:08:07;;;;;;;12.23;11.20;;;11.20;99.90;;;;;;5064098;28;20032;-64
2020/12/24 05:10:34;;;;;;;11.55;10.65;;;11.20;99.90;;;;;;5063381;28;20029;-64
2020/12/24 05:13:15;;;;;;;10.30;9.48;;;11.20;99.90;;;;;;5067891;28;20528;-64
2020/12/24 05:15:40;;;;;;;12.07;10.98;;;11.20;99.90;;;;;;5064241;28;20390;-64
2020/12/24 05:18:23;;;;;;;13.02;11.93;;;11.20;99.90;;;;;;5061054;28;20047;-64
2020/12/24 05:20:50;;;;;;;12.45;11.38;;;11.20;99.90;;;;;;5062861;28;20391;-64
2020/12/24 05:23:18;;;;;;;11.05;10.15;;;11.20;99.90;;;;;;5056101;28;20159;-64
2020/12/24 05:25:45;;;;;;;12.82;11.70;;;11.20;99.90;;;;;;5062657;28;20124;-64
2020/12/24 05:28:27;;;;;;;11.82;10.73;;;11.20;99.90;;;;;;5044033;28;20112;-63
2020/12/24 05:30:54;;;;;;;9.57;8.82;;;11.30;99.90;;;;;;5065341;28;20029;-64
2020/12/24 05:33:33;;;;;;;10.10;9.30;;;11.20;99.90;;;;;;5058202;28;20021;-64
2020/12/24 05:36:14;;;;;;;10.75;9.95;;;11.30;99.90;;;;;;5065493;28;20585;-63
2020/12/24 05:38:40;;;;;;;9.05;8.35;;;11.30;99.90;;;;;;5061702;28;20064;-63
2020/12/24 05:41:28;;;;;;;9.20;8.50;;;11.30;99.90;;;;;;5057626;28;20052;-64
2020/12/24 05:44:14;;;;;;;9.43;8.57;;;11.30;99.90;;;;;;5058193;28;20020;-64
2020/12/24 05:46:42;;;;;;;10.50;9.70;;;11.30;99.90;;;;;;5061973;28;20040;-64
2020/12/24 05:49:19;;;;;;;8.60;8.00;;;11.30;99.90;;;;;;5058639;28;20032;-64
2020/12/24 05:51:48;;;;;;;10.07;9.30;;;11.30;99.90;;;;;;5065612;28;20050;-64
2020/12/24 05:54:15;;;;;;;7.03;6.50;;;11.30;99.90;;;;;;5060298;28;20035;-64
2020/12/24 05:56:42;;;;;;;6.32;5.93;;;11.30;99.90;;;;;;5063970;28;20033;-64
2020/12/24 05:59:12;;;;;;;7.15;6.65;;;11.30;99.90;;;;;;5060803;28;20052;-64
2020/12/24 06:01:41;;;;;;;8.88;8.27;;;11.30;99.90;;;;;;5059259;28;20035;-63
2020/12/24 06:04:09;;;;;;;8.70;8.10;;;11.30;99.90;;;;;;5059409;28;20059;-64
2020/12/24 06:06:42;;;;;;;8.52;7.93;;;11.40;99.90;;;;;;5068418;28;20029;-64
2020/12/24 06:09:13;;;;;;;8.70;7.97;;;11.40;99.90;;;;;;5057524;28;20028;-64
2020/12/24 06:11:51;;;;;;;7.68;7.13;;;11.30;99.90;;;;;;5045538;28;20028;-64
2020/12/24 06:14:30;;;;;;;8.48;7.88;;;11.30;99.90;;;;;;5061039;28;20099;-64
2020/12/24 06:17:02;;;;;;;8.88;8.27;;;11.20;99.90;;;;;;5066501;28;20531;-64
2020/12/24 06:19:28;;;;;;;8.23;7.63;;;11.30;99.90;;;;;;5060277;28;20033;-64
2020/12/24 06:21:54;;;;;;;8.10;7.35;;;11.30;99.90;;;;;;5057913;28;20031;-64
2020/12/24 06:24:20;;;;;;;8.40;7.70;;;11.30;99.90;;;;;;5059306;28;20032;-64
2020/12/24 06:26:54;;;;;;;9.60;8.90;;;11.20;99.90;;;;;;5051229;28;20020;-64
2020/12/24 06:29:21;;;;;;;8.07;7.55;;;11.30;99.90;;;;;;5061725;28;20024;-64
2020/12/24 06:31:50;;;;;;;8.88;8.13;;;11.40;99.90;;;;;;5065472;28;20463;-64
2020/12/24 06:34:23;;;;;;;7.45;6.95;;;11.40;99.90;;;;;;5058828;28;20028;-64
2020/12/24 06:36:49;;;;;;;5.47;5.10;;;11.40;99.90;;;;;;5048700;28;20143;-64
2020/12/24 06:39:51;;;;;;;6.40;6.00;;;11.40;99.90;;;;;;5052538;28;20112;-64
2020/12/24 06:42:35;;;;;;;6.60;6.10;;;11.40;99.90;;;;;;5063183;28;20020;-64
2020/12/24 06:45:11;;;;;;;6.38;5.88;;;11.40;99.90;;;;;;5057086;28;20032;-64
2020/12/24 06:47:39;;;;;;;6.60;6.10;;;11.30;99.90;;;;;;5061412;28;20035;-64
2020/12/24 06:50:46;;;;;;;7.50;6.93;;;11.40;99.90;;;;;;5060482;28;20043;-64
2020/12/24 06:53:18;;;;;;;5.28;4.88;;;11.40;99.90;;;;;;5048436;28;20068;-64
2020/12/24 06:55:44;;;;;;;5.38;4.97;;;11.30;99.90;;;;;;5058288;28;20029;-64
2020/12/24 06:58:43;;;;;;;5.35;5.05;;;11.30;99.90;;;;;;5065528;28;20119;-64
2020/12/24 07:01:30;;;;;;;5.18;4.82;;;11.30;99.90;;;;;;5058642;28;20081;-64
2020/12/24 07:03:58;;;;;;;5.47;5.07;;;11.30;99.90;;;;;;5047237;28;20513;-64
2020/12/24 07:06:43;;;;;;;5.50;5.00;;;11.40;99.90;;;;;;5058543;28;20492;-64
2020/12/24 07:09:31;;;;;;;5.60;5.10;;;11.40;99.90;;;;;;5065903;28;20100;-64
2020/12/24 07:11:58;;;;;;;7.50;6.90;;;11.30;99.90;;;;;;5058834;28;20029;-64
2020/12/24 07:14:34;;;;;;;7.10;6.60;;;11.30;99.90;;;;;;5063816;28;20024;-64
2020/12/24 07:17:18;;;;;;;7.30;6.65;;;11.20;99.90;;;;;;5062553;28;20059;-64
2020/12/24 07:19:49;;;;;;;8.40;7.70;;;11.30;99.90;;;;;;5063248;28;20526;-64
2020/12/24 07:22:19;;;;;;;7.85;7.25;;;11.30;99.90;;;;;;5057729;28;20025;-64
2020/12/24 07:25:00;;;;;;;8.43;7.78;;;11.20;99.90;;;;;;5066680;28;20119;-64
2020/12/24 07:27:26;;;;;;;8.23;7.60;;;11.30;99.90;;;;;;5057498;28;20450;-64
2020/12/24 07:29:52;;;;;;;9.55;8.75;;;11.30;99.90;;;;;;5063309;28;20075;-64
2020/12/24 07:32:19;;;;;;;9.63;8.90;;;11.20;99.90;;;;;;5058219;28;20036;-64
2020/12/24 07:34:45;;;;;;;9.18;8.40;;;11.30;99.90;;;;;;5043799;28;20547;-63
2020/12/24 07:37:11;;;;;;;9.52;8.82;;;11.30;99.90;;;;;;5041691;28;20041;-64
2020/12/24 07:39:37;;;;;;;10.50;9.60;;;11.30;99.90;;;;;;5038149;28;20029;-64
2020/12/24 07:42:03;;;;;;;9.27;8.57;;;11.30;99.90;;;;;;5034406;28;20055;-64
2020/12/24 07:44:28;;;;;;;10.25;9.25;;;11.30;99.90;;;;;;5046720;28;20029;-64
2020/12/24 07:47:02;;;;;;;10.15;9.35;;;11.30;99.90;;;;;;5041939;28;22694;-64
2020/12/24 07:49:28;;;;;;;10.18;9.35;;;11.40;99.90;;;;;;5039166;28;20395;-64
2020/12/24 07:51:55;;;;;;;9.40;8.70;;;11.30;99.90;;;;;;5040482;28;20033;-64
2020/12/24 07:54:30;;;;;;;11.75;10.38;;;11.30;99.90;;;;;;5042246;28;20040;-64
2020/12/24 07:56:57;;;;;;;12.52;11.35;;;11.30;99.90;;;;;;5048309;28;20063;-64
2020/12/24 07:59:23;;;;;;;11.48;10.57;;;11.30;99.90;;;;;;5046454;28;20474;-63
2020/12/24 08:01:49;;;;;;;11.10;10.23;;;11.30;99.90;;;;;;5045848;28;20025;-64
2020/12/24 08:04:16;;;;;;;11.93;10.93;;;11.30;99.90;;;;;;5050116;28;20017;-64
2020/12/24 08:06:42;;;;;;;11.60;10.75;;;11.30;99.90;;;;;;5045879;28;20029;-63
2020/12/24 08:09:20;;;;;;;10.93;10.07;;;11.30;99.90;;;;;;5043188;28;20527;-64
2020/12/24 08:11:57;;;;;;;11.50;10.40;;;11.20;99.90;;;;;;5047898;28;20021;-63
2020/12/24 08:14:30;;;;;;;14.07;13.02;;;11.30;99.90;;;;;;5052473;28;20102;-64
2020/12/24 08:17:21;;;;;;;13.45;12.35;;;11.20;99.90;;;;;;5068228;28;20051;-63
2020/12/24 08:19:58;;;;;;;14.00;12.80;;;11.30;99.90;;;;;;5057557;28;20110;-63
2020/12/24 08:22:38;;;;;;;14.15;12.95;;;11.30;99.90;;;;;;5070966;28;20410;-64
2020/12/24 08:25:07;;;;;;;14.15;12.95;;;11.30;99.90;;;;;;5059383;28;20044;-63
2020/12/24 08:27:33;;;;;;;13.68;12.60;;;11.30;99.90;;;;;;5066237;28;20501;-63
2020/12/24 08:30:06;;;;;;;13.07;12.07;;;11.30;99.90;;;;;;5064021;28;20113;-64
2020/12/24 08:32:32;;;;;;;13.27;12.02;;;11.40;99.90;;;;;;5068738;28;20502;-63
2020/12/24 08:35:28;;;;;;;12.75;11.65;;;11.40;99.90;;;;;;5061458;28;20059;-63
2020/12/24 08:37:54;;;;;;;13.27;12.23;;;11.30;99.90;;;;;;5071922;28;20056;-63
2020/12/24 08:40:20;;;;;;;15.30;14.00;;;11.40;99.90;;;;;;5082610;28;20075;-63
2020/12/24 08:42:47;;;;;;;14.23;12.90;;;11.40;99.90;;;;;;5084157;28;20028;-63
2020/12/24 08:45:14;;;;;;;15.00;13.50;;;11.30;99.90;;;;;;5087071;28;20024;-63
2020/12/24 08:47:40;;;;;;;13.25;12.10;;;11.40;99.90;;;;;;5082766;28;20412;-64
2020/12/24 08:50:06;;;;;;;16.23;14.82;;;11.40;99.90;;;;;;5089072;28;20060;-64
2020/12/24 08:52:43;;;;;;;15.82;14.38;;;11.40;99.90;;;;;;5047673;28;20063;-64
2020/12/24 08:55:09;;;;;;;14.85;13.55;;;11.40;99.90;;;;;;5086613;28;20044;-65
2020/12/24 08:57:36;;;;;;;15.32;13.93;;;11.40;99.90;;;;;;5079923;28;20359;-65
2020/12/24 09:00:12;;;;;;;14.45;13.15;;;11.40;99.90;;;;;;5082030;28;20122;-64
2020/12/24 09:02:39;;;;;;;14.35;13.13;;;11.40;99.90;;;;;;5081600;28;20032;-64
2020/12/24 09:05:06;;;;;;;13.30;12.10;;;11.40;99.90;;;;;;5082967;28;20520;-64
2020/12/24 09:07:34;;;;;;;14.52;13.38;;;11.30;99.90;;;;;;5074534;28;20040;-64
2020/12/24 09:10:10;;;;;;;15.20;13.90;;;11.40;99.90;;;;;;5081528;28;20044;-64
2020/12/24 09:12:41;;;;;;;14.70;13.40;;;11.40;99.90;;;;;;5081409;28;21882;-64
2020/12/24 09:15:10;;;;;;;15.05;13.75;;;11.40;99.90;;;;;;5083261;28;20059;-64
2020/12/24 09:17:46;;;;;;;15.40;14.10;;;11.40;99.90;;;;;;5076060;28;20493;-64
2020/12/24 09:20:12;;;;;;;14.35;13.25;;;11.20;99.90;;;;;;5086548;28;20048;-64
2020/12/24 09:22:55;;;;;;;15.65;14.35;;;11.30;99.90;;;;;;5080441;28;20128;-64
2020/12/24 09:25:38;;;;;;;12.93;11.93;;;11.30;99.90;;;;;;5082043;28;20055;-64
2020/12/24 09:28:05;;;;;;;12.65;11.65;;;11.30;99.90;;;;;;5080260;28;20399;-64
2020/12/24 09:30:32;;;;;;;14.18;12.88;;;11.30;99.90;;;;;;5081111;28;20063;-64
2020/12/24 09:33:02;;;;;;;10.95;10.07;;;11.40;99.90;;;;;;5084032;28;20423;-63
2020/12/24 09:35:29;;;;;;;11.60;10.70;;;11.40;99.90;;;;;;5079923;28;20044;-63
2020/12/24 09:37:55;;;;;;;10.20;9.40;;;11.40;99.90;;;;;;5097243;28;20043;-62
2020/12/24 09:40:22;;;;;;;11.07;10.15;;;11.30;99.90;;;;;;5074861;28;20050;-63
2020/12/24 09:42:48;;;;;;;9.75;8.93;;;11.40;99.90;;;;;;5068159;28;20051;-63
2020/12/24 09:45:14;;;;;;;11.35;10.25;;;11.30;99.90;;;;;;5093398;28;20036;-64
2020/12/24 09:47:43;;;;;;;10.57;9.75;;;11.40;99.90;;;;;;5082766;28;20100;-63
2020/12/24 09:50:09;;;;;;;8.60;7.90;;;11.30;99.90;;;;;;5055784;28;20070;-63
2020/12/24 09:52:38;;;;;;;10.18;9.38;;;11.40;99.90;;;;;;5023935;27;20557;-64
2020/12/24 09:55:04;;;;;;;10.75;9.95;;;11.40;99.90;;;;;;5043115;28;20072;-63
2020/12/24 09:57:33;;;;;;;10.50;9.70;;;11.40;99.90;;;;;;5051420;28;20564;-64
2020/12/24 09:59:59;;;;;;;12.48;11.48;;;11.40;99.90;;;;;;5036492;28;20587;-63
2020/12/24 10:02:28;;;;;;;12.07;10.90;;;11.40;99.90;;;;;;5060414;28;20039;-63
2020/12/24 10:04:54;;;;;;;11.40;10.52;;;11.40;99.90;;;;;;5085947;28;20501;-63
2020/12/24 10:07:30;;;;;;;11.95;11.05;;;11.50;99.90;;;;;;5075938;28;20088;-64
2020/12/24 10:09:56;;;;;;;10.93;10.13;;;11.50;99.90;;;;;;5041130;28;20429;-62
2020/12/24 10:12:24;;;;;;;12.57;11.52;;;11.60;99.90;;;;;;5079848;28;20035;-63
2020/12/24 10:14:50;;;;;;;14.88;13.30;;;11.60;99.90;;;;;;5078167;28;20408;-63
2020/12/24 10:17:17;;;;;;;10.10;9.30;;;11.60;99.90;;;;;;5072166;28;20040;-63
2020/12/24 10:19:43;;;;;;;9.77;9.00;;;11.60;99.90;;;;;;5090472;28;20056;-63
2020/12/24 10:22:10;;;;;;;11.02;10.13;;;11.60;99.90;;;;;;5093945;28;20035;-63
2020/12/24 10:24:40;;;;;;;12.55;11.35;;;11.60;99.90;;;;;;5076264;28;20218;-63
2020/12/24 10:27:07;;;;;;;11.70;10.70;;;11.60;99.90;;;;;;5080832;28;20046;-63
2020/12/24 10:29:33;;;;;;;11.15;10.25;;;11.60;99.90;;;;;;5096608;28;20496;-63
2020/12/24 10:31:59;;;;;;;11.15;10.25;;;11.60;99.90;;;;;;5081380;27;20443;-64
2020/12/24 10:34:24;;;;;;;11.70;10.60;;;11.60;99.90;;;;;;5100721;28;20085;-62
2020/12/24 10:36:50;;;;;;;11.50;10.57;;;11.60;99.90;;;;;;5098603;27;20466;-64
2020/12/24 10:39:17;;;;;;;12.90;11.90;;;11.60;99.90;;;;;;5099908;28;20039;-63
2020/12/24 10:41:49;;;;;;;26.05;22.00;;;11.60;99.90;;;;;;5095227;28;20032;-64
2020/12/24 10:44:16;;;;;;;16.73;15.05;;;11.70;99.90;;;;;;5083468;28;20055;-64
2020/12/24 10:46:42;;;;;;;15.45;13.95;;;11.70;99.90;;;;;;5081617;28;20032;-64
2020/12/24 10:49:07;;;;;;;12.63;11.63;;;11.60;99.90;;;;;;5101268;28;20034;-64
2020/12/24 10:51:34;;;;;;;11.85;10.82;;;11.70;99.90;;;;;;5094972;28;20043;-64
2020/12/24 10:53:59;;;;;;;10.35;9.45;;;11.80;99.90;;;;;;5100738;28;20031;-63
2020/12/24 10:56:25;;;;;;;10.68;9.65;;;11.80;99.90;;;;;;5096160;28;20481;-63
2020/12/24 10:58:51;;;;;;;142.70;98.75;;;11.80;99.90;;;;;;5100735;28;20083;-64
2020/12/24 11:01:18;;;;;;;14.10;12.60;;;11.70;99.90;;;;;;5094845;28;20049;-64
2020/12/24 11:03:45;;;;;;;10.65;9.85;;;11.70;99.90;;;;;;5095575;28;20044;-63
2020/12/24 11:06:22;;;;;;;8.98;8.38;;;11.70;99.90;;;;;;5077179;28;20044;-64
2020/12/24 11:08:48;;;;;;;8.65;7.95;;;11.70;99.90;;;;;;5072996;28;23193;-63
2020/12/24 11:11:14;;;;;;;9.32;8.48;;;11.60;99.90;;;;;;5093140;28;20503;-63
2020/12/24 11:13:44;;;;;;;10.05;9.15;;;11.60;99.90;;;;;;5097568;28;20079;-63
2020/12/24 11:16:12;;;;;;;10.52;9.68;;;11.70;99.90;;;;;;5098574;28;20036;-64
2020/12/24 11:18:39;;;;;;;12.63;11.38;;;11.70;99.90;;;;;;5095681;28;20064;-63
2020/12/24 11:21:07;;;;;;;8.90;8.27;;;11.70;99.90;;;;;;5097154;28;20138;-63
2020/12/24 11:23:33;;;;;;;9.63;8.70;;;11.60;99.90;;;;;;5090522;28;20046;-63
2020/12/24 11:25:58;;;;;;;8.57;7.85;;;11.60;99.90;;;;;;5095116;28;20032;-62
2020/12/24 11:28:24;;;;;;;9.23;8.43;;;11.60;99.90;;;;;;5095439;28;20104;-63
2020/12/24 11:30:50;;;;;;;7.78;7.18;;;11.70;99.90;;;;;;5078907;28;20059;-63
2020/12/24 11:33:15;;;;;;;11.25;9.23;;;11.70;99.90;;;;;;5080596;28;20500;-63
2020/12/24 11:35:41;;;;;;;10.77;9.88;;;11.70;99.90;;;;;;5100917;28;20040;-63
2020/12/24 11:38:07;;;;;;;13.55;11.40;;;11.70;99.90;;;;;;5099951;28;20050;-63
2020/12/24 11:40:32;;;;;;;12.15;11.05;;;11.70;99.90;;;;;;5101869;28;20271;-63
2020/12/24 11:42:58;;;;;;;11.68;10.57;;;11.70;99.90;;;;;;5098753;27;20055;-63
2020/12/24 11:45:23;;;;;;;13.00;11.88;;;11.60;99.90;;;;;;5102057;28;20188;-63
2020/12/24 11:47:49;;;;;;;12.90;11.77;;;11.70;99.90;;;;;;5096431;28;20039;-63
2020/12/24 11:50:15;;;;;;;13.95;12.65;;;11.70;99.90;;;;;;5102226;28;20058;-63
2020/12/24 11:52:41;;;;;;;13.07;11.88;;;11.70;99.90;;;;;;5084537;28;20035;-63
2020/12/24 11:55:06;;;;;;;12.45;11.30;;;11.70;99.90;;;;;;5077751;28;20050;-64
2020/12/24 11:57:32;;;;;;;13.23;11.95;;;11.60;99.90;;;;;;5100887;27;20047;-63
2020/12/24 11:59:58;;;;;;;14.25;12.82;;;11.70;99.90;;;;;;5097068;28;20058;-63
2020/12/24 12:02:24;;;;;;;14.23;12.95;;;11.70;99.90;;;;;;5102063;28;20048;-63
2020/12/24 12:04:50;;;;;;;13.77;12.48;;;11.80;99.90;;;;;;5097644;28;20498;-63
2020/12/24 12:07:16;;;;;;;12.98;11.77;;;11.70;99.90;;;;;;5101801;28;20143;-63
2020/12/24 12:09:41;;;;;;;13.13;11.90;;;11.70;99.90;;;;;;5076495;28;20040;-63
2020/12/24 12:12:07;;;;;;;11.25;10.15;;;11.70;99.90;;;;;;5080865;28;20036;-63
2020/12/24 12:14:33;;;;;;;12.43;11.13;;;11.70;99.90;;;;;;5096168;28;20043;-63
2020/12/24 12:16:59;;;;;;;12.82;11.52;;;11.80;99.90;;;;;;5100314;28;20070;-62
2020/12/24 12:19:25;;;;;;;12.05;10.85;;;11.80;99.90;;;;;;5096652;27;20054;-63
2020/12/24 12:21:51;;;;;;;10.63;9.63;;;11.80;99.90;;;;;;5100209;27;20040;-63
2020/12/24 12:24:18;;;;;;;11.95;10.73;;;11.70;99.90;;;;;;5082835;28;20130;-63
2020/12/24 12:26:44;;;;;;;12.55;11.32;;;11.70;99.90;;;;;;5098006;28;20560;-63
2020/12/24 12:29:10;;;;;;;13.15;11.88;;;11.80;99.90;;;;;;5098704;28;20128;-64
2020/12/24 12:31:37;;;;;;;11.57;10.48;;;11.70;99.90;;;;;;5095517;28;20035;-64
2020/12/24 12:34:02;;;;;;;12.90;11.63;;;11.60;99.90;;;;;;5099456;28;20095;-63
2020/12/24 12:36:28;;;;;;;11.35;10.27;;;11.70;99.90;;;;;;5097387;28;20504;-64
2020/12/24 12:38:54;;;;;;;13.20;11.80;;;11.70;99.90;;;;;;5081055;28;20047;-64